Time;durP1;ratioP1;P1;durP2;ratioP2;P2;SDS_P1;SDS_P2;PMS_P1;PMS_P2;Temp;Humidity;BMP_temperature;BMP_pressure;BME280_temperature;BME280_humidity;BME280_pressure;Samples;Min_cycle;Max_cycle;Signal;HPM_P1;HPM_P2
2023/10/31 00:01:20;;;;;;;1.30;0.73;;;10.40;99.90;;;;;;7528683;19;20023;-71
2023/10/31 00:03:52;;;;;;;2.95;0.90;;;10.30;99.90;;;;;;7533321;19;20022;-71
2023/10/31 00:06:25;;;;;;;2.20;1.10;;;10.30;99.90;;;;;;7532152;19;20150;-71
2023/10/31 00:08:57;;;;;;;3.15;0.98;;;10.20;99.90;;;;;;7544221;19;20051;-71
2023/10/31 00:11:29;;;;;;;2.20;0.80;;;10.10;99.90;;;;;;7521824;19;21479;-71
2023/10/31 00:14:02;;;;;;;2.15;0.90;;;10.00;99.90;;;;;;7531183;19;20018;-70
2023/10/31 00:16:34;;;;;;;1.90;0.75;;;10.00;99.90;;;;;;7532145;19;20105;-69
2023/10/31 00:19:07;;;;;;;1.63;0.65;;;9.90;99.90;;;;;;7531826;19;20018;-71
2023/10/31 00:21:40;;;;;;;1.25;0.90;;;9.90;99.90;;;;;;7538344;19;20022;-72
2023/10/31 00:24:12;;;;;;;1.58;0.80;;;9.90;99.90;;;;;;7546769;19;20017;-72
2023/10/31 00:26:44;;;;;;;0.82;0.57;;;9.80;99.90;;;;;;7544621;19;20101;-71
2023/10/31 00:29:17;;;;;;;0.80;0.70;;;9.90;99.90;;;;;;7546947;19;20022;-71
2023/10/31 00:31:49;;;;;;;1.15;0.60;;;9.80;99.90;;;;;;7545724;19;20530;-71
2023/10/31 00:34:22;;;;;;;0.77;0.35;;;9.80;99.90;;;;;;7542842;19;20377;-70
2023/10/31 00:36:54;;;;;;;1.13;0.50;;;9.80;99.90;;;;;;7550372;19;20101;-70
2023/10/31 00:39:26;;;;;;;1.00;0.50;;;9.80;99.90;;;;;;7548834;19;20022;-70
2023/10/31 00:41:58;;;;;;;1.02;0.68;;;9.70;99.90;;;;;;7540612;19;20047;-70
2023/10/31 00:44:32;;;;;;;2.13;1.35;;;9.70;99.90;;;;;;7555213;19;21147;-71
2023/10/31 00:47:05;;;;;;;0.60;0.60;;;9.70;99.90;;;;;;7544537;19;21253;-70
2023/10/31 00:49:38;;;;;;;2.72;0.50;;;9.70;99.90;;;;;;7543833;19;20003;-70
2023/10/31 00:52:10;;;;;;;0.40;0.32;;;9.60;99.90;;;;;;7535855;19;20090;-70
2023/10/31 00:54:42;;;;;;;0.55;0.40;;;9.60;99.90;;;;;;7553069;19;20048;-71
2023/10/31 00:57:14;;;;;;;0.28;0.22;;;9.60;99.90;;;;;;7535316;19;20010;-69
2023/10/31 00:59:47;;;;;;;0.98;0.63;;;9.60;99.90;;;;;;7545859;19;21914;-70
2023/10/31 01:02:20;;;;;;;0.38;0.38;;;9.60;99.90;;;;;;7546173;19;20757;-70
2023/10/31 01:04:53;;;;;;;0.82;0.40;;;9.60;99.90;;;;;;7551247;19;20014;-69
2023/10/31 01:07:25;;;;;;;0.65;0.43;;;9.60;99.90;;;;;;7548701;19;20317;-70
2023/10/31 01:09:57;;;;;;;1.33;0.50;;;9.70;99.90;;;;;;7546145;19;20016;-71
2023/10/31 01:12:30;;;;;;;3.92;0.50;;;9.60;99.90;;;;;;7541018;19;21021;-70
2023/10/31 01:15:04;;;;;;;0.80;0.40;;;9.60;99.90;;;;;;7547223;19;20026;-69
2023/10/31 01:17:36;;;;;;;;;;;9.70;99.90;;;;;;7530233;19;20518;-71
2023/10/31 01:20:10;;;;;;;0.80;0.40;;;9.60;99.90;;;;;;7562304;19;19923;-70
2023/10/31 01:22:42;;;;;;;;;;;9.60;99.90;;;;;;7532381;19;21162;-78
2023/10/31 01:25:14;;;;;;;0.45;0.43;;;9.60;99.90;;;;;;7540476;19;19925;-77
2023/10/31 01:27:46;;;;;;;1.00;0.60;;;9.70;99.90;;;;;;7537775;19;20026;-77
2023/10/31 01:30:18;;;;;;;1.38;0.60;;;9.60;99.90;;;;;;7539770;19;20093;-78
2023/10/31 01:32:51;;;;;;;0.70;0.43;;;9.60;99.90;;;;;;7530060;19;20562;-78
2023/10/31 01:35:24;;;;;;;0.70;0.50;;;9.60;99.90;;;;;;7541717;19;20030;-77
2023/10/31 01:37:56;;;;;;;0.32;0.32;;;9.70;99.90;;;;;;7542766;19;20099;-78
2023/10/31 01:40:28;;;;;;;0.68;0.50;;;9.60;99.90;;;;;;7544829;19;20783;-78
2023/10/31 01:43:00;;;;;;;0.35;0.20;;;9.60;99.90;;;;;;7530991;19;20014;-77
2023/10/31 01:45:33;;;;;;;0.40;0.40;;;9.70;99.90;;;;;;7536560;19;20528;-78
2023/10/31 01:48:05;;;;;;;0.40;0.40;;;9.60;99.90;;;;;;7534224;19;20349;-77
2023/10/31 01:50:39;;;;;;;3.03;0.75;;;9.60;99.90;;;;;;7531545;19;20011;-77
2023/10/31 01:53:11;;;;;;;0.32;0.32;;;9.60;99.90;;;;;;7544269;19;20014;-78
2023/10/31 01:55:45;;;;;;;0.70;0.40;;;9.50;99.90;;;;;;7549139;19;20018;-80
2023/10/31 01:58:20;;;;;;;0.25;0.25;;;9.40;99.90;;;;;;7533693;19;20025;-79
2023/10/31 02:00:52;;;;;;;0.20;0.20;;;9.40;99.90;;;;;;7520339;19;20048;-77
2023/10/31 02:03:29;;;;;;;0.73;0.50;;;9.50;99.90;;;;;;7529650;19;20490;-78
2023/10/31 02:06:02;;;;;;;0.90;0.40;;;9.40;99.90;;;;;;7533275;19;20454;-78
2023/10/31 02:08:35;;;;;;;0.30;0.30;;;9.40;99.90;;;;;;7526806;19;20015;-76
2023/10/31 02:11:09;;;;;;;2.30;0.40;;;9.30;99.90;;;;;;7517486;19;25837;-78
2023/10/31 02:13:44;;;;;;;1.38;0.30;;;9.30;99.90;;;;;;7511348;19;20078;-78
2023/10/31 02:16:16;;;;;;;0.22;0.20;;;9.30;99.90;;;;;;7532231;19;21185;-77
2023/10/31 02:18:48;;;;;;;0.20;0.20;;;9.30;99.90;;;;;;7537604;19;21531;-77
2023/10/31 02:21:20;;;;;;;0.30;0.30;;;9.30;99.90;;;;;;7524468;19;20044;-76
2023/10/31 02:24:01;;;;;;;0.98;0.43;;;9.30;99.90;;;;;;7531748;19;20039;-77
2023/10/31 02:26:34;;;;;;;0.20;0.20;;;9.20;99.90;;;;;;7535772;19;20053;-78
2023/10/31 02:29:06;;;;;;;0.55;0.40;;;9.20;99.90;;;;;;7535003;19;20017;-76
2023/10/31 02:31:39;;;;;;;0.47;0.20;;;9.20;99.90;;;;;;7528240;19;20015;-77
2023/10/31 02:34:13;;;;;;;0.22;0.22;;;9.10;99.90;;;;;;7508550;19;20018;-77
2023/10/31 02:36:46;;;;;;;0.45;0.45;;;9.10;99.90;;;;;;7523247;19;20015;-77
2023/10/31 02:39:20;;;;;;;0.32;0.30;;;9.10;99.90;;;;;;7518261;19;20010;-78
2023/10/31 02:41:57;;;;;;;0.50;0.30;;;9.00;99.90;;;;;;7495639;19;20022;-77
2023/10/31 02:44:30;;;;;;;0.30;0.30;;;9.10;99.90;;;;;;7490822;19;20025;-77
2023/10/31 02:47:02;;;;;;;0.38;0.20;;;9.10;99.90;;;;;;7494955;19;20137;-78
2023/10/31 02:49:34;;;;;;;0.52;0.20;;;9.10;99.90;;;;;;7499353;19;20496;-78
2023/10/31 02:52:06;;;;;;;0.55;0.25;;;9.10;99.90;;;;;;7507132;19;20010;-78
2023/10/31 02:54:39;;;;;;;2.17;0.30;;;9.10;99.90;;;;;;7442926;19;20018;-79
2023/10/31 02:57:12;;;;;;;0.30;0.28;;;9.10;99.90;;;;;;7501806;19;20022;-79
2023/10/31 02:59:46;;;;;;;3.17;0.30;;;9.30;99.90;;;;;;7513423;19;20014;-80
2023/10/31 03:02:18;;;;;;;2.95;0.50;;;9.10;99.90;;;;;;7495263;19;20014;-79
2023/10/31 03:04:52;;;;;;;1.17;0.40;;;9.20;99.90;;;;;;7492996;19;20089;-79
2023/10/31 03:07:25;;;;;;;0.63;0.28;;;9.20;99.90;;;;;;7498254;19;20018;-78
2023/10/31 03:09:57;;;;;;;0.30;0.30;;;9.20;99.90;;;;;;7508307;19;20047;-78
2023/10/31 03:12:30;;;;;;;0.30;0.30;;;9.20;99.90;;;;;;7512282;19;21017;-77
2023/10/31 03:15:04;;;;;;;0.28;0.28;;;9.20;99.90;;;;;;7516490;19;20435;-78
2023/10/31 03:17:36;;;;;;;0.52;0.20;;;9.20;99.90;;;;;;7479786;19;20557;-78
2023/10/31 03:20:09;;;;;;;0.20;0.20;;;9.20;99.90;;;;;;7493973;19;20086;-78
2023/10/31 03:22:41;;;;;;;0.37;0.30;;;9.20;99.90;;;;;;7499891;19;20025;-77
2023/10/31 03:25:14;;;;;;;0.75;0.30;;;9.10;99.90;;;;;;7498222;19;20585;-78
2023/10/31 03:27:46;;;;;;;0.82;0.40;;;9.10;99.90;;;;;;7504152;19;20909;-78
2023/10/31 03:30:18;;;;;;;0.30;0.20;;;9.10;99.90;;;;;;7516766;19;20019;-78
2023/10/31 03:32:51;;;;;;;0.47;0.20;;;9.10;99.90;;;;;;7502250;19;20531;-78
2023/10/31 03:35:23;;;;;;;2.63;0.30;;;9.20;99.90;;;;;;7501833;19;20022;-78
2023/10/31 03:37:56;;;;;;;1.75;0.40;;;9.20;99.90;;;;;;7530142;19;20365;-80
2023/10/31 03:40:28;;;;;;;1.23;0.30;;;9.10;99.90;;;;;;7537156;19;20415;-79
2023/10/31 03:43:01;;;;;;;0.65;0.30;;;9.10;99.90;;;;;;7517583;19;21937;-79
2023/10/31 03:45:34;;;;;;;0.35;0.30;;;9.10;99.90;;;;;;7500918;19;20022;-78
2023/10/31 03:48:06;;;;;;;0.50;0.50;;;9.20;99.90;;;;;;7494039;19;20011;-77
2023/10/31 03:50:39;;;;;;;0.38;0.20;;;9.20;99.90;;;;;;7487302;19;20009;-79
2023/10/31 03:53:11;;;;;;;1.70;0.60;;;9.20;99.90;;;;;;7520255;19;20595;-78
2023/10/31 03:55:43;;;;;;;1.35;0.63;;;9.20;99.90;;;;;;7505349;19;20989;-79
2023/10/31 03:58:16;;;;;;;1.33;0.50;;;9.20;99.90;;;;;;7486163;19;20030;-79
2023/10/31 04:00:48;;;;;;;0.30;0.30;;;9.20;99.90;;;;;;7493015;19;21300;-78
2023/10/31 04:03:21;;;;;;;3.63;0.65;;;9.10;99.90;;;;;;7474341;19;20014;-79
2023/10/31 04:05:54;;;;;;;0.73;0.38;;;9.30;99.90;;;;;;7516993;19;20019;-79
2023/10/31 04:08:26;;;;;;;1.30;1.20;;;9.10;99.90;;;;;;7509764;19;20959;-78
2023/10/31 04:10:58;;;;;;;0.95;0.55;;;9.10;99.90;;;;;;7490486;19;20085;-79
2023/10/31 04:13:30;;;;;;;0.40;0.40;;;9.20;99.90;;;;;;7501790;19;21441;-79
2023/10/31 04:16:03;;;;;;;5.07;0.40;;;9.10;99.90;;;;;;7502142;19;20010;-79
2023/10/31 04:18:37;;;;;;;1.02;0.70;;;9.20;99.90;;;;;;7490102;19;20321;-78
2023/10/31 04:21:09;;;;;;;1.08;0.43;;;9.10;99.90;;;;;;7479587;19;20018;-79
2023/10/31 04:23:41;;;;;;;0.95;0.30;;;9.20;99.90;;;;;;7497532;19;21153;-79
2023/10/31 04:26:15;;;;;;;1.75;0.40;;;9.10;99.90;;;;;;7505766;19;20090;-79
2023/10/31 04:28:48;;;;;;;0.40;0.40;;;9.10;99.90;;;;;;7488131;19;21002;-77
2023/10/31 04:31:21;;;;;;;0.30;0.30;;;9.10;99.90;;;;;;7479068;19;25665;-78
2023/10/31 04:34:05;;;;;;;0.93;0.50;;;9.00;99.90;;;;;;7484553;19;20261;-78
2023/10/31 04:36:39;;;;;;;2.13;0.60;;;9.10;99.90;;;;;;7507129;19;20020;-77
2023/10/31 04:39:11;;;;;;;1.08;0.60;;;9.00;99.90;;;;;;7498208;19;21078;-75
2023/10/31 04:41:44;;;;;;;2.63;0.52;;;9.10;99.90;;;;;;7480493;19;20018;-76
2023/10/31 04:44:16;;;;;;;0.33;0.30;;;9.10;99.90;;;;;;7502678;19;20471;-78
2023/10/31 04:46:49;;;;;;;1.02;0.52;;;9.20;99.90;;;;;;7508100;19;20262;-76
2023/10/31 04:49:21;;;;;;;1.77;0.63;;;9.10;99.90;;;;;;7517085;19;20048;-78
2023/10/31 04:51:54;;;;;;;0.60;0.50;;;9.00;99.90;;;;;;7498203;19;20017;-76
2023/10/31 04:54:26;;;;;;;1.80;0.60;;;9.00;99.90;;;;;;7521041;19;21098;-77
2023/10/31 04:56:58;;;;;;;2.65;0.50;;;9.00;99.90;;;;;;7510178;19;20050;-77
2023/10/31 04:59:31;;;;;;;2.00;0.95;;;8.90;99.90;;;;;;7508080;19;20373;-78
2023/10/31 05:02:03;;;;;;;0.70;0.65;;;8.90;99.90;;;;;;7501440;19;21311;-77
2023/10/31 05:04:39;;;;;;;0.70;0.45;;;8.90;99.90;;;;;;7508949;19;20014;-77
2023/10/31 05:07:12;;;;;;;2.22;0.65;;;9.00;99.90;;;;;;7505914;19;20729;-77
2023/10/31 05:09:45;;;;;;;1.02;0.63;;;9.10;99.90;;;;;;7512787;19;20141;-78
2023/10/31 05:12:19;;;;;;;5.05;0.82;;;9.00;99.90;;;;;;7498385;19;20625;-77
2023/10/31 05:14:51;;;;;;;1.60;1.13;;;9.00;99.90;;;;;;7496825;19;20603;-79
2023/10/31 05:17:23;;;;;;;5.20;1.15;;;9.00;99.90;;;;;;7482791;19;20018;-77
2023/10/31 05:19:56;;;;;;;0.88;0.70;;;9.00;99.90;;;;;;7493414;19;21020;-78
2023/10/31 05:22:28;;;;;;;1.63;0.90;;;9.00;99.90;;;;;;7502828;19;20011;-76
2023/10/31 05:25:00;;;;;;;2.17;1.50;;;9.00;99.90;;;;;;7495334;19;20333;-77
2023/10/31 05:27:33;;;;;;;1.50;0.80;;;9.00;99.90;;;;;;7503059;19;20014;-77
2023/10/31 05:30:06;;;;;;;5.85;0.80;;;9.00;99.90;;;;;;7507841;19;20690;-76
2023/10/31 05:32:38;;;;;;;1.67;0.70;;;9.10;99.90;;;;;;7515495;19;20014;-77
2023/10/31 05:35:15;;;;;;;1.73;0.63;;;9.00;99.90;;;;;;7474051;19;20014;-77
2023/10/31 05:37:47;;;;;;;4.90;0.90;;;9.00;99.90;;;;;;7480970;19;20026;-76
2023/10/31 05:40:22;;;;;;;3.87;0.83;;;9.10;99.90;;;;;;7484152;19;20970;-77
2023/10/31 05:42:54;;;;;;;2.25;0.82;;;9.00;99.90;;;;;;7469879;19;20291;-77
2023/10/31 05:45:27;;;;;;;5.60;1.02;;;9.00;99.90;;;;;;7504318;19;20311;-78
2023/10/31 05:48:01;;;;;;;2.13;0.90;;;8.90;99.90;;;;;;7499338;19;20007;-77
2023/10/31 05:50:34;;;;;;;2.53;1.15;;;9.00;99.90;;;;;;7500900;19;20931;-77
2023/10/31 05:53:06;;;;;;;1.42;1.00;;;9.00;99.90;;;;;;7494241;19;20017;-77
2023/10/31 05:55:39;;;;;;;1.83;1.10;;;9.00;99.90;;;;;;7490588;19;20026;-79
2023/10/31 05:58:12;;;;;;;;;;;9.00;99.90;;;;;;7478108;19;22076;-77
2023/10/31 06:00:44;;;;;;;1.63;0.80;;;8.90;99.90;;;;;;7489464;19;19907;-77
2023/10/31 06:03:16;;;;;;;3.08;0.93;;;8.90;99.90;;;;;;7496170;19;20530;-77
2023/10/31 06:05:49;;;;;;;1.13;0.90;;;8.90;99.90;;;;;;7482752;19;20028;-77
2023/10/31 06:08:24;;;;;;;3.33;1.23;;;8.90;99.90;;;;;;7508419;19;20495;-77
2023/10/31 06:10:57;;;;;;;3.15;1.08;;;9.00;99.90;;;;;;7490921;19;20048;-77
2023/10/31 06:13:31;;;;;;;6.32;1.35;;;9.00;99.90;;;;;;7492257;19;20535;-77
2023/10/31 06:16:05;;;;;;;1.92;1.10;;;9.00;99.90;;;;;;7490277;19;20972;-78
2023/10/31 06:18:40;;;;;;;4.03;1.30;;;9.00;99.90;;;;;;7480654;19;21370;-79
2023/10/31 06:21:12;;;;;;;1.60;1.33;;;9.00;99.90;;;;;;7487156;19;21254;-77
2023/10/31 06:23:46;;;;;;;2.10;1.23;;;9.10;99.90;;;;;;7493923;19;20500;-78
2023/10/31 06:26:22;;;;;;;5.82;1.02;;;9.10;99.90;;;;;;7506324;19;20010;-77
2023/10/31 06:28:54;;;;;;;5.28;1.20;;;9.20;99.90;;;;;;7487411;19;20105;-78
2023/10/31 06:31:47;;;;;;;5.20;1.70;;;9.20;99.90;;;;;;7489056;19;20257;-79
2023/10/31 06:34:19;;;;;;;4.05;1.10;;;9.10;99.90;;;;;;7503980;19;20015;-78
2023/10/31 06:36:52;;;;;;;1.77;1.05;;;9.00;99.90;;;;;;7487285;19;20296;-75
2023/10/31 06:39:33;;;;;;;1.48;1.00;;;9.10;99.90;;;;;;7474523;19;20025;-78
2023/10/31 06:42:06;;;;;;;3.95;1.50;;;9.10;99.90;;;;;;7481816;19;20349;-77
2023/10/31 06:44:41;;;;;;;4.75;1.45;;;9.10;99.90;;;;;;7488151;19;20018;-77
2023/10/31 06:47:14;;;;;;;2.90;1.27;;;9.10;99.90;;;;;;7458941;19;20507;-77
2023/10/31 06:49:47;;;;;;;4.47;1.20;;;9.20;99.90;;;;;;7495852;19;20438;-80
2023/10/31 06:52:26;;;;;;;7.55;1.55;;;9.20;99.90;;;;;;7475589;19;20444;-77
2023/10/31 06:54:58;;;;;;;3.75;1.13;;;9.20;99.90;;;;;;7452609;19;20015;-78
2023/10/31 06:57:31;;;;;;;5.13;2.10;;;9.10;99.90;;;;;;7482490;19;20014;-75
2023/10/31 07:00:08;;;;;;;4.38;1.38;;;9.10;99.90;;;;;;7477616;19;21964;-76
2023/10/31 07:02:40;;;;;;;4.80;1.30;;;9.10;99.90;;;;;;7480367;19;20054;-79
2023/10/31 07:05:13;;;;;;;6.50;1.60;;;9.20;99.90;;;;;;7506433;19;20720;-79
2023/10/31 07:07:47;;;;;;;4.13;1.60;;;9.10;99.90;;;;;;7498568;19;20374;-79
2023/10/31 07:10:19;;;;;;;3.70;1.85;;;9.10;99.90;;;;;;7505493;19;20010;-76
2023/10/31 07:12:51;;;;;;;3.97;1.90;;;9.00;99.90;;;;;;7489289;19;20705;-76
2023/10/31 07:15:28;;;;;;;8.35;4.25;;;9.10;99.90;;;;;;7469678;19;20089;-76
2023/10/31 07:18:00;;;;;;;6.10;2.85;;;9.00;99.90;;;;;;7452233;19;20392;-75
2023/10/31 07:20:33;;;;;;;5.35;2.47;;;8.90;99.90;;;;;;7468510;19;20011;-76
2023/10/31 07:23:06;;;;;;;3.97;1.95;;;8.90;99.90;;;;;;7479626;19;20030;-75
2023/10/31 07:25:38;;;;;;;5.72;2.63;;;9.00;99.90;;;;;;7463142;19;20732;-76
2023/10/31 07:28:11;;;;;;;3.33;1.73;;;9.00;99.90;;;;;;7478309;19;20010;-76
2023/10/31 07:30:43;;;;;;;5.17;2.17;;;9.10;99.90;;;;;;7499134;19;20007;-76
2023/10/31 07:33:15;;;;;;;6.18;2.90;;;9.10;99.90;;;;;;7504177;19;20047;-75
2023/10/31 07:35:47;;;;;;;5.40;2.42;;;9.20;99.90;;;;;;7487255;19;20204;-76
2023/10/31 07:38:20;;;;;;;6.10;2.33;;;9.10;99.90;;;;;;7537929;19;20080;-77
2023/10/31 07:40:52;;;;;;;4.32;2.05;;;9.10;99.90;;;;;;7539471;19;20982;-78
2023/10/31 07:43:25;;;;;;;4.40;1.92;;;9.20;99.90;;;;;;7548898;19;20021;-80
2023/10/31 07:45:57;;;;;;;5.03;1.80;;;9.20;99.90;;;;;;7490085;19;20014;-77
2023/10/31 07:48:31;;;;;;;2.70;1.70;;;9.20;99.90;;;;;;7497544;19;20081;-80
2023/10/31 07:51:04;;;;;;;7.47;2.10;;;9.20;99.90;;;;;;7496973;19;20473;-75
2023/10/31 07:53:37;;;;;;;5.63;1.92;;;9.30;99.90;;;;;;7475117;19;20017;-77
2023/10/31 07:56:17;;;;;;;4.13;1.70;;;9.30;99.90;;;;;;7478308;19;20454;-76
2023/10/31 07:58:50;;;;;;;4.78;1.90;;;9.30;99.90;;;;;;7464415;19;20991;-76
2023/10/31 08:01:22;;;;;;;6.88;3.78;;;9.40;99.90;;;;;;7447540;19;20096;-75
2023/10/31 08:03:55;;;;;;;2.65;1.80;;;9.30;99.90;;;;;;7474996;19;20742;-78
2023/10/31 08:06:27;;;;;;;3.80;2.15;;;9.30;99.90;;;;;;7461354;19;20022;-75
2023/10/31 08:09:00;;;;;;;3.90;1.20;;;9.40;99.90;;;;;;7457873;19;20034;-75
2023/10/31 08:11:34;;;;;;;4.38;1.30;;;9.40;99.90;;;;;;7441391;19;20035;-78
2023/10/31 08:14:06;;;;;;;8.93;3.33;;;9.40;99.90;;;;;;7447338;19;20093;-77
2023/10/31 08:16:38;;;;;;;2.53;1.20;;;9.40;99.90;;;;;;7430441;19;20870;-78
2023/10/31 08:19:12;;;;;;;2.25;1.10;;;9.50;99.90;;;;;;7462490;19;20033;-78
2023/10/31 08:21:44;;;;;;;1.83;1.05;;;9.50;99.90;;;;;;7491816;19;20893;-79
2023/10/31 08:24:17;;;;;;;7.28;1.80;;;9.60;99.90;;;;;;7447202;19;20017;-76
2023/10/31 08:26:52;;;;;;;3.95;1.10;;;9.50;99.90;;;;;;7451321;19;20014;-76
2023/10/31 08:29:24;;;;;;;2.22;1.10;;;9.40;99.90;;;;;;7439748;19;20011;-77
2023/10/31 08:31:57;;;;;;;1.75;1.10;;;9.40;99.90;;;;;;7483274;19;20577;-77
2023/10/31 08:34:29;;;;;;;2.15;1.13;;;9.50;99.90;;;;;;7455802;19;20239;-79
2023/10/31 08:37:02;;;;;;;5.13;1.02;;;9.50;99.90;;;;;;7480984;19;20014;-78
2023/10/31 08:39:34;;;;;;;8.43;1.57;;;9.50;99.90;;;;;;7467311;19;20233;-78
2023/10/31 08:42:07;;;;;;;2.63;1.35;;;9.50;99.90;;;;;;7463425;19;20010;-77
2023/10/31 08:44:40;;;;;;;2.03;1.30;;;9.50;99.90;;;;;;7485295;19;20010;-78
2023/10/31 08:47:13;;;;;;;4.55;1.13;;;9.60;99.90;;;;;;7474382;19;20373;-78
2023/10/31 08:49:46;;;;;;;3.60;1.30;;;9.50;99.90;;;;;;7453031;19;20030;-77
2023/10/31 08:52:22;;;;;;;4.23;0.87;;;9.60;99.90;;;;;;7460185;19;20017;-75
2023/10/31 08:54:54;;;;;;;3.58;1.27;;;9.50;99.90;;;;;;7455393;19;21673;-77
2023/10/31 08:57:26;;;;;;;5.05;1.25;;;9.50;99.90;;;;;;7425639;19;20701;-76
2023/10/31 08:59:59;;;;;;;5.25;1.75;;;9.50;99.90;;;;;;7418000;19;20021;-75
2023/10/31 09:02:31;;;;;;;3.83;1.58;;;9.40;99.90;;;;;;7457191;19;20007;-76
2023/10/31 09:05:05;;;;;;;6.10;1.55;;;9.50;99.90;;;;;;7442721;19;20054;-77
2023/10/31 09:07:37;;;;;;;2.87;1.40;;;9.40;99.90;;;;;;7429275;19;20035;-75
2023/10/31 09:10:11;;;;;;;2.78;1.20;;;9.50;99.90;;;;;;7471894;19;21143;-77
2023/10/31 09:12:43;;;;;;;7.05;1.45;;;9.50;99.90;;;;;;7459900;19;20401;-75
2023/10/31 09:15:15;;;;;;;6.50;1.42;;;9.50;99.90;;;;;;7461582;19;20018;-76
2023/10/31 09:17:48;;;;;;;6.45;1.30;;;9.60;99.90;;;;;;7480840;19;21261;-77
2023/10/31 09:20:22;;;;;;;4.60;1.17;;;9.50;99.90;;;;;;7474830;19;20024;-76
2023/10/31 09:22:54;;;;;;;6.47;1.58;;;9.60;99.90;;;;;;7442720;19;20019;-76
2023/10/31 09:25:26;;;;;;;3.83;1.70;;;9.60;99.90;;;;;;7497743;19;20010;-75
2023/10/31 09:28:00;;;;;;;4.53;1.30;;;9.60;99.90;;;;;;7513467;19;20011;-74
2023/10/31 09:30:32;;;;;;;5.63;2.10;;;9.70;99.90;;;;;;7523971;19;20124;-75
2023/10/31 09:33:04;;;;;;;4.72;1.48;;;9.60;99.90;;;;;;7521379;19;20022;-76
2023/10/31 09:35:37;;;;;;;8.13;1.53;;;9.70;99.90;;;;;;7526379;19;20018;-75
2023/10/31 09:38:09;;;;;;;6.65;2.03;;;9.70;99.90;;;;;;7515379;19;20017;-74
2023/10/31 09:40:41;;;;;;;6.00;1.30;;;9.70;99.90;;;;;;7531990;19;20040;-74
2023/10/31 09:43:13;;;;;;;3.03;1.27;;;9.70;99.90;;;;;;7516951;19;20018;-75
2023/10/31 09:45:47;;;;;;;7.85;1.42;;;9.70;99.90;;;;;;7527064;19;20018;-76
2023/10/31 09:48:22;;;;;;;6.90;1.95;;;9.70;99.90;;;;;;7520680;19;20109;-77
2023/10/31 09:50:56;;;;;;;9.85;2.30;;;9.80;99.90;;;;;;7497295;19;20150;-76
2023/10/31 09:53:31;;;;;;;4.82;1.80;;;9.80;99.90;;;;;;7476185;19;21534;-75
2023/10/31 09:56:06;;;;;;;13.18;2.58;;;9.80;99.90;;;;;;7472275;19;20018;-75
2023/10/31 09:58:39;;;;;;;3.22;1.17;;;9.80;99.90;;;;;;7500390;19;20018;-76
2023/10/31 10:01:12;;;;;;;7.97;1.60;;;9.80;99.90;;;;;;7455571;19;20015;-74
2023/10/31 10:03:44;;;;;;;5.15;1.30;;;9.80;99.90;;;;;;7470259;19;20025;-74
2023/10/31 10:06:21;;;;;;;7.43;1.50;;;9.80;99.90;;;;;;7479301;19;20650;-77
2023/10/31 10:08:56;;;;;;;3.67;1.33;;;9.90;99.90;;;;;;7483701;19;20018;-77
2023/10/31 10:11:28;;;;;;;3.95;1.30;;;9.80;99.90;;;;;;7466305;19;20361;-76
2023/10/31 10:14:02;;;;;;;4.50;1.38;;;9.90;99.90;;;;;;7469507;19;21546;-75
2023/10/31 10:16:35;;;;;;;6.20;1.67;;;10.00;99.90;;;;;;7465253;19;20616;-77
2023/10/31 10:19:23;;;;;;;8.57;1.95;;;10.00;99.90;;;;;;7484685;19;20030;-77
2023/10/31 10:21:59;;;;;;;4.78;1.90;;;10.10;99.90;;;;;;7494585;19;20006;-78
2023/10/31 10:24:33;;;;;;;6.10;1.70;;;10.10;99.90;;;;;;7482848;19;20010;-75
2023/10/31 10:27:08;;;;;;;5.85;1.65;;;10.20;99.90;;;;;;7474350;19;20014;-79
2023/10/31 10:29:41;;;;;;;7.15;1.88;;;10.20;99.90;;;;;;7465560;19;21057;-78
2023/10/31 10:32:13;;;;;;;5.85;1.45;;;10.20;99.90;;;;;;7453013;19;20721;-78
2023/10/31 10:34:46;;;;;;;4.73;1.30;;;10.30;99.90;;;;;;7479320;19;20010;-78
2023/10/31 10:37:19;;;;;;;3.40;1.27;;;10.30;99.90;;;;;;7465640;19;20294;-76
2023/10/31 10:39:56;;;;;;;4.38;1.50;;;10.30;99.90;;;;;;7481211;19;20105;-78
2023/10/31 10:42:35;;;;;;;6.50;1.40;;;10.30;99.90;;;;;;7468590;19;20018;-78
2023/10/31 10:45:11;;;;;;;8.63;1.88;;;10.30;99.90;;;;;;7432798;19;20923;-75
2023/10/31 10:47:47;;;;;;;2.40;1.27;;;10.20;99.90;;;;;;7465157;19;20007;-77
2023/10/31 10:50:28;;;;;;;4.65;1.10;;;10.20;99.90;;;;;;7476497;19;20058;-75
2023/10/31 10:53:10;;;;;;;4.50;1.48;;;10.30;99.90;;;;;;7468191;19;20407;-76
2023/10/31 10:55:46;;;;;;;1.75;1.15;;;10.30;99.90;;;;;;7450488;19;20562;-76
2023/10/31 10:58:35;;;;;;;8.68;1.88;;;10.40;99.90;;;;;;7423498;19;20014;-76
2023/10/31 11:01:09;;;;;;;5.15;1.98;;;10.50;99.90;;;;;;7490552;19;20011;-76
2023/10/31 11:03:44;;;;;;;3.28;1.20;;;10.40;99.90;;;;;;7470442;19;20017;-76
2023/10/31 11:06:18;;;;;;;6.07;1.50;;;10.50;99.90;;;;;;7480016;19;20021;-76
2023/10/31 11:08:53;;;;;;;6.40;1.75;;;10.50;99.90;;;;;;7504182;19;20062;-75
2023/10/31 11:11:25;;;;;;;6.75;1.27;;;10.60;99.90;;;;;;7517757;19;21048;-77
2023/10/31 11:13:59;;;;;;;6.15;1.85;;;10.60;99.90;;;;;;7454816;19;20522;-77
2023/10/31 11:17:09;;;;;;;7.57;1.40;;;10.60;99.90;;;;;;7457309;19;20420;-77
2023/10/31 11:19:42;;;;;;;3.97;0.93;;;10.60;99.90;;;;;;7482997;19;20010;-77
2023/10/31 11:22:18;;;;;;;7.43;1.67;;;10.80;99.90;;;;;;7498790;19;20491;-78
2023/10/31 11:24:52;;;;;;;4.85;1.48;;;10.80;99.90;;;;;;7513297;19;20017;-77
2023/10/31 11:27:24;;;;;;;4.43;1.42;;;10.80;99.90;;;;;;7473230;19;20037;-76
2023/10/31 11:29:59;;;;;;;6.97;1.58;;;10.80;99.90;;;;;;7485947;19;20013;-78
2023/10/31 11:32:33;;;;;;;5.25;1.30;;;10.90;99.90;;;;;;7463590;19;20026;-74
2023/10/31 11:35:06;;;;;;;3.17;0.90;;;10.90;99.90;;;;;;7475828;19;21211;-77
2023/10/31 11:37:40;;;;;;;3.20;1.10;;;10.90;99.90;;;;;;7477409;19;20022;-75
2023/10/31 11:40:13;;;;;;;3.10;1.23;;;10.90;99.90;;;;;;7464613;19;20010;-77
2023/10/31 11:42:54;;;;;;;2.33;0.95;;;11.00;99.90;;;;;;7462959;19;20014;-74
2023/10/31 11:45:47;;;;;;;7.43;1.30;;;11.00;99.90;;;;;;7432219;19;20478;-75
2023/10/31 11:48:51;;;;;;;4.70;1.60;;;11.00;99.90;;;;;;7450090;19;20503;-74
2023/10/31 11:51:24;;;;;;;7.82;1.40;;;11.00;99.90;;;;;;7473578;19;21024;-74
2023/10/31 11:53:56;;;;;;;4.03;1.20;;;11.10;99.90;;;;;;7465582;19;20015;-74
2023/10/31 11:56:29;;;;;;;6.60;1.42;;;11.00;99.90;;;;;;7487718;19;20081;-77
2023/10/31 11:59:03;;;;;;;3.13;1.35;;;11.20;99.90;;;;;;7467570;19;20354;-77
2023/10/31 12:01:47;;;;;;;4.95;1.20;;;11.20;99.90;;;;;;7478358;19;20917;-74
2023/10/31 12:04:23;;;;;;;7.33;1.60;;;11.20;99.90;;;;;;7472771;19;20098;-77
2023/10/31 12:07:00;;;;;;;4.45;1.77;;;11.20;99.90;;;;;;7452146;19;20627;-77
2023/10/31 12:09:32;;;;;;;3.78;1.23;;;11.20;99.90;;;;;;7460081;19;21333;-74
2023/10/31 12:12:06;;;;;;;3.38;1.13;;;11.30;99.90;;;;;;7489759;19;20013;-78
2023/10/31 12:14:40;;;;;;;7.75;1.25;;;11.40;99.90;;;;;;7475951;19;20064;-77
2023/10/31 12:17:12;;;;;;;4.78;1.20;;;11.40;99.90;;;;;;7504828;19;20010;-78
2023/10/31 12:19:45;;;;;;;5.15;1.13;;;11.50;99.90;;;;;;7477070;19;20489;-75
2023/10/31 12:22:18;;;;;;;4.28;1.33;;;11.40;99.90;;;;;;7502985;19;20682;-75
2023/10/31 12:24:50;;;;;;;2.30;1.00;;;11.40;99.90;;;;;;7472986;19;20010;-76
2023/10/31 12:27:23;;;;;;;5.33;1.40;;;11.50;99.90;;;;;;7478637;19;20014;-76
2023/10/31 12:30:03;;;;;;;4.53;1.23;;;11.50;99.90;;;;;;7496602;19;20469;-76
2023/10/31 12:32:36;;;;;;;2.60;0.90;;;11.60;99.90;;;;;;7491393;19;20864;-76
2023/10/31 12:35:16;;;;;;;5.55;1.40;;;11.70;99.90;;;;;;7507964;19;20532;-78
2023/10/31 12:37:50;;;;;;;2.95;1.23;;;11.70;99.90;;;;;;7508351;19;20113;-76
2023/10/31 12:40:23;;;;;;;4.17;1.07;;;11.80;99.90;;;;;;7515131;19;20327;-77
2023/10/31 12:42:55;;;;;;;2.97;1.00;;;12.00;99.90;;;;;;7505541;19;20484;-78
2023/10/31 12:45:28;;;;;;;1.83;0.80;;;12.10;99.90;;;;;;7503729;19;21835;-76
2023/10/31 12:48:04;;;;;;;1.90;0.90;;;12.40;99.90;;;;;;7497539;19;20697;-76
2023/10/31 12:50:39;;;;;;;3.00;0.88;;;12.40;99.90;;;;;;7460687;19;20609;-77
2023/10/31 12:53:23;;;;;;;2.10;0.80;;;12.50;99.90;;;;;;7487436;19;20136;-76
2023/10/31 12:55:56;;;;;;;2.28;0.95;;;12.60;99.90;;;;;;7486243;19;20011;-77
2023/10/31 12:58:28;;;;;;;1.33;0.70;;;12.40;99.90;;;;;;7512281;19;20039;-74
2023/10/31 13:01:01;;;;;;;2.58;0.80;;;12.30;99.90;;;;;;7499491;19;20741;-75
2023/10/31 13:03:49;;;;;;;2.60;0.70;;;12.30;99.90;;;;;;7525932;19;20018;-75
2023/10/31 13:06:21;;;;;;;4.18;0.82;;;12.20;99.90;;;;;;7531423;19;20018;-78
2023/10/31 13:08:59;;;;;;;2.00;1.00;;;12.10;99.90;;;;;;7523936;19;20421;-75
2023/10/31 13:11:32;;;;;;;2.30;0.57;;;11.90;99.90;;;;;;7534086;19;20552;-77
2023/10/31 13:14:04;;;;;;;2.37;0.90;;;11.80;99.90;;;;;;7516556;19;20022;-75
2023/10/31 13:16:38;;;;;;;6.15;0.95;;;11.80;99.90;;;;;;7513477;19;20023;-75
2023/10/31 13:19:10;;;;;;;1.27;0.73;;;11.70;99.90;;;;;;7498637;19;20022;-75
2023/10/31 13:21:43;;;;;;;4.80;0.80;;;11.60;99.90;;;;;;7508612;19;20014;-75
2023/10/31 13:24:15;;;;;;;2.20;0.80;;;11.60;99.90;;;;;;7494413;19;20858;-75
2023/10/31 13:26:51;;;;;;;1.10;0.80;;;11.50;99.90;;;;;;7483227;19;20014;-76
2023/10/31 13:29:27;;;;;;;1.50;0.70;;;11.50;99.90;;;;;;7480661;19;20141;-74